Time;durP1;ratioP1;P1;durP2;ratioP2;P2;SDS_P1;SDS_P2;PMS_P1;PMS_P2;Temp;Humidity;BMP_temperature;BMP_pressure;BME280_temperature;BME280_humidity;BME280_pressure;Samples;Min_cycle;Max_cycle;Signal;HPM_P1;HPM_P2
2022/08/16 00:02:23;;;;;;;15.27;11.98;;;;;;;;;;5009472;28;20110;-77
2022/08/16 00:04:50;;;;;;;16.38;12.55;;;;;;;;;;5006892;28;20046;-77
2022/08/16 00:07:19;;;;;;;15.52;11.50;;;;;;;;;;5014638;28;20103;-77
2022/08/16 00:10:01;;;;;;;16.42;11.85;;;;;;;;;;5014131;28;20054;-75
2022/08/16 00:12:29;;;;;;;16.85;11.70;;;;;;;;;;5006081;28;20120;-76
2022/08/16 00:15:00;;;;;;;14.27;11.38;;;;;;;;;;5004686;28;20053;-77
2022/08/16 00:17:28;;;;;;;17.85;12.15;;;;;;;;;;5014232;28;20054;-77
2022/08/16 00:20:15;;;;;;;15.10;11.73;;;;;;;;;;5010223;28;20065;-77
2022/08/16 00:22:47;;;;;;;16.27;12.93;;;;;;;;;;5012930;28;20706;-76
2022/08/16 00:25:18;;;;;;;19.55;13.13;;;;;;;;;;5005916;28;20191;-77
2022/08/16 00:28:07;;;;;;;19.25;12.77;;;;;;;;;;5002935;28;20068;-77
2022/08/16 00:30:37;;;;;;;20.20;12.68;;;;;;;;;;5012532;28;20035;-77
2022/08/16 00:33:05;;;;;;;17.95;12.93;;;;;;;;;;5000918;28;20058;-77
2022/08/16 00:35:35;;;;;;;17.00;13.10;;;;;;;;;;5011364;28;20050;-77
2022/08/16 00:38:03;;;;;;;27.02;13.10;;;;;;;;;;5015466;28;20704;-77
2022/08/16 00:40:52;;;;;;;16.73;12.38;;;;;;;;;;5004759;28;20062;-77
2022/08/16 00:43:21;;;;;;;16.80;13.27;;;;;;;;;;5004282;28;20085;-78
2022/08/16 00:46:01;;;;;;;17.77;13.25;;;;;;;;;;5009287;28;20134;-77
2022/08/16 00:48:49;;;;;;;16.38;13.40;;;;;;;;;;5010379;28;20035;-77
2022/08/16 00:51:21;;;;;;;20.25;14.38;;;;;;;;;;5011509;28;20069;-77
2022/08/16 00:53:49;;;;;;;17.77;12.48;;;;;;;;;;5009930;28;20488;-78
2022/08/16 00:56:37;;;;;;;16.10;13.00;;;;;;;;;;5006393;28;20050;-77
2022/08/16 00:59:26;;;;;;;15.70;12.48;;;;;;;;;;5007381;28;20047;-77
2022/08/16 01:01:54;;;;;;;16.42;11.80;;;;;;;;;;5009738;28;20065;-77
2022/08/16 01:04:28;;;;;;;17.98;12.30;;;;;;;;;;5013734;28;20073;-77
2022/08/16 01:06:58;;;;;;;16.02;12.23;;;;;;;;;;5011450;28;20058;-78
2022/08/16 01:09:30;;;;;;;20.63;11.98;;;;;;;;;;5015689;28;20566;-77
2022/08/16 01:12:07;;;;;;;19.98;13.30;;;;;;;;;;5009067;28;20051;-77
2022/08/16 01:14:49;;;;;;;16.95;12.23;;;;;;;;;;5004350;28;20138;-77
2022/08/16 01:17:19;;;;;;;17.25;13.10;;;;;;;;;;5009799;28;20050;-77
2022/08/16 01:19:52;;;;;;;15.77;12.15;;;;;;;;;;5018421;28;20050;-77
2022/08/16 01:22:42;;;;;;;19.55;13.63;;;;;;;;;;5007374;28;20043;-77
2022/08/16 01:25:20;;;;;;;18.25;13.88;;;;;;;;;;5006895;28;20098;-77
2022/08/16 01:27:51;;;;;;;17.00;12.68;;;;;;;;;;5009151;28;20065;-77
2022/08/16 01:30:23;;;;;;;25.05;12.88;;;;;;;;;;5007425;28;20081;-77
2022/08/16 01:32:53;;;;;;;18.60;12.13;;;;;;;;;;5009387;28;20508;-77
2022/08/16 01:35:34;;;;;;;17.30;12.15;;;;;;;;;;5013198;28;20054;-78
2022/08/16 01:38:17;;;;;;;18.10;12.50;;;;;;;;;;5011973;28;20057;-77
2022/08/16 01:40:46;;;;;;;15.10;10.90;;;;;;;;;;5016705;28;20054;-77
2022/08/16 01:43:14;;;;;;;15.70;11.35;;;;;;;;;;5009374;28;20030;-77
2022/08/16 01:45:41;;;;;;;15.18;12.07;;;;;;;;;;5011121;28;20057;-77
2022/08/16 01:48:09;;;;;;;18.30;11.90;;;;;;;;;;5012173;28;20807;-77
2022/08/16 01:50:46;;;;;;;18.48;12.70;;;;;;;;;;5009803;28;20887;-78
2022/08/16 01:53:34;;;;;;;13.27;10.85;;;;;;;;;;5006905;28;20094;-77
2022/08/16 01:56:02;;;;;;;15.23;12.32;;;;;;;;;;5017360;28;20093;-77
2022/08/16 01:58:29;;;;;;;19.20;12.60;;;;;;;;;;5016930;28;20050;-77
2022/08/16 02:00:56;;;;;;;18.33;13.77;;;;;;;;;;5010589;28;20051;-77
2022/08/16 02:03:24;;;;;;;15.10;11.45;;;;;;;;;;5011392;28;20042;-77
2022/08/16 02:05:58;;;;;;;18.75;12.52;;;;;;;;;;5006955;28;20047;-77
2022/08/16 02:08:27;;;;;;;19.23;12.70;;;;;;;;;;5015171;28;20065;-76
2022/08/16 02:11:01;;;;;;;22.08;13.25;;;;;;;;;;5004693;28;20141;-77
2022/08/16 02:13:29;;;;;;;16.30;12.38;;;;;;;;;;5012503;28;20054;-77
2022/08/16 02:15:59;;;;;;;20.50;14.75;;;;;;;;;;5004933;28;20816;-77
2022/08/16 02:18:30;;;;;;;20.13;14.60;;;;;;;;;;5000631;28;20520;-77
2022/08/16 02:21:00;;;;;;;21.87;14.33;;;;;;;;;;5010945;28;20161;-77
2022/08/16 02:23:30;;;;;;;23.30;15.75;;;;;;;;;;4998462;28;20043;-77
2022/08/16 02:25:57;;;;;;;20.75;13.85;;;;;;;;;;5002186;28;20045;-77
2022/08/16 02:28:26;;;;;;;19.20;14.05;;;;;;;;;;5009552;28;20046;-77
2022/08/16 02:31:01;;;;;;;22.90;14.90;;;;;;;;;;5005323;28;20046;-77
2022/08/16 02:33:29;;;;;;;22.08;14.65;;;;;;;;;;4997815;28;20057;-78
2022/08/16 02:36:15;;;;;;;18.30;15.07;;;;;;;;;;5003255;28;20056;-77
2022/08/16 02:39:03;;;;;;;17.70;14.55;;;;;;;;;;5005966;28;20055;-77
2022/08/16 02:41:31;;;;;;;21.35;15.60;;;;;;;;;;5000760;28;20050;-77
2022/08/16 02:44:05;;;;;;;17.38;13.85;;;;;;;;;;5001509;28;20111;-77
2022/08/16 02:46:34;;;;;;;19.63;14.38;;;;;;;;;;5006503;28;20061;-77
2022/08/16 02:49:01;;;;;;;21.30;14.00;;;;;;;;;;4999844;28;20055;-78
2022/08/16 02:51:32;;;;;;;18.13;14.20;;;;;;;;;;5001291;28;20165;-77
2022/08/16 02:54:02;;;;;;;18.65;14.57;;;;;;;;;;4997978;28;20057;-77
2022/08/16 02:56:29;;;;;;;20.17;15.48;;;;;;;;;;4996986;28;20047;-77
2022/08/16 02:58:59;;;;;;;20.20;15.63;;;;;;;;;;5001432;28;20062;-77
2022/08/16 03:01:31;;;;;;;21.42;15.15;;;;;;;;;;4998544;28;20047;-76
2022/08/16 03:04:04;;;;;;;23.30;15.75;;;;;;;;;;4996618;28;20059;-77
2022/08/16 03:06:55;;;;;;;21.55;15.60;;;;;;;;;;4999179;28;20086;-77
2022/08/16 03:09:28;;;;;;;16.20;12.18;;;;;;;;;;5009853;28;20050;-77
2022/08/16 03:11:58;;;;;;;20.15;9.38;;;;;;;;;;5002303;28;20105;-77
2022/08/16 03:14:28;;;;;;;12.65;9.18;;;;;;;;;;4998277;28;20046;-78
2022/08/16 03:16:58;;;;;;;10.98;6.90;;;;;;;;;;5001714;28;20046;-77
2022/08/16 03:19:28;;;;;;;7.32;5.97;;;;;;;;;;5004323;28;20055;-77
2022/08/16 03:22:18;;;;;;;10.60;6.18;;;;;;;;;;5002578;28;20046;-78
2022/08/16 03:24:58;;;;;;;7.93;6.22;;;;;;;;;;5002175;28;20051;-77
2022/08/16 03:27:28;;;;;;;10.33;7.30;;;;;;;;;;5004251;28;20055;-77
2022/08/16 03:29:57;;;;;;;11.15;8.15;;;;;;;;;;5005732;28;20157;-78
2022/08/16 03:32:24;;;;;;;11.63;8.52;;;;;;;;;;4998564;28;20045;-77
2022/08/16 03:34:54;;;;;;;11.10;7.95;;;;;;;;;;4997035;28;20089;-77
2022/08/16 03:37:23;;;;;;;10.10;8.20;;;;;;;;;;4998515;28;20093;-77
2022/08/16 03:39:51;;;;;;;13.77;8.70;;;;;;;;;;4998859;28;20598;-77
2022/08/16 03:42:22;;;;;;;11.38;8.75;;;;;;;;;;4993402;28;20055;-77
2022/08/16 03:44:50;;;;;;;14.38;9.95;;;;;;;;;;5005823;28;20058;-77
2022/08/16 03:47:29;;;;;;;14.13;10.25;;;;;;;;;;5003223;28;20058;-77
2022/08/16 03:50:01;;;;;;;16.77;11.52;;;;;;;;;;5004130;28;20050;-78
2022/08/16 03:52:29;;;;;;;15.35;10.50;;;;;;;;;;5004624;28;20157;-77
2022/08/16 03:54:57;;;;;;;14.98;10.73;;;;;;;;;;4993192;28;20061;-78
2022/08/16 03:57:26;;;;;;;12.20;8.65;;;;;;;;;;4997640;28;20050;-77
2022/08/16 04:00:12;;;;;;;9.82;7.28;;;;;;;;;;5006982;28;20057;-77
2022/08/16 04:03:05;;;;;;;10.93;7.90;;;;;;;;;;4998942;28;20051;-77
2022/08/16 04:05:38;;;;;;;13.60;8.95;;;;;;;;;;5005250;28;20093;-78
2022/08/16 04:08:11;;;;;;;14.88;8.40;;;;;;;;;;4996498;28;20051;-77
2022/08/16 04:10:54;;;;;;;14.30;8.30;;;;;;;;;;4997429;28;20043;-78
2022/08/16 04:13:24;;;;;;;11.52;7.15;;;;;;;;;;4998772;28;20073;-78
2022/08/16 04:16:12;;;;;;;12.23;7.13;;;;;;;;;;4995719;28;20237;-78
2022/08/16 04:18:55;;;;;;;10.10;6.82;;;;;;;;;;4999709;28;20137;-78
2022/08/16 04:21:30;;;;;;;11.73;8.25;;;;;;;;;;4998187;28;20059;-78
2022/08/16 04:23:58;;;;;;;13.13;8.95;;;;;;;;;;4996719;28;20061;-78
2022/08/16 04:26:28;;;;;;;13.50;9.23;;;;;;;;;;4998127;28;20050;-78
2022/08/16 04:28:59;;;;;;;11.93;8.55;;;;;;;;;;4993706;28;20050;-77
2022/08/16 04:31:46;;;;;;;13.15;9.75;;;;;;;;;;5000143;28;20054;-78
2022/08/16 04:34:28;;;;;;;13.68;9.90;;;;;;;;;;4997397;28;20130;-77
2022/08/16 04:36:59;;;;;;;13.50;9.93;;;;;;;;;;4992316;28;20051;-78
2022/08/16 04:39:28;;;;;;;16.73;11.90;;;;;;;;;;4998036;28;20051;-77
2022/08/16 04:42:14;;;;;;;14.90;10.25;;;;;;;;;;4991377;28;20050;-76
2022/08/16 04:44:42;;;;;;;15.05;11.55;;;;;;;;;;5020487;28;20053;-76
2022/08/16 04:47:25;;;;;;;17.25;12.23;;;;;;;;;;5020880;28;20513;-76
2022/08/16 04:49:59;;;;;;;21.73;12.20;;;;;;;;;;5018262;28;20050;-77
2022/08/16 04:52:28;;;;;;;16.88;12.48;;;;;;;;;;5020454;28;20093;-76
2022/08/16 04:55:10;;;;;;;17.13;11.68;;;;;;;;;;5012274;28;20086;-76
2022/08/16 04:57:39;;;;;;;19.17;12.70;;;;;;;;;;5025281;28;20133;-76
2022/08/16 05:00:12;;;;;;;20.40;12.75;;;;;;;;;;5017818;28;20057;-76
2022/08/16 05:03:00;;;;;;;17.75;12.77;;;;;;;;;;5007954;28;20086;-77
2022/08/16 05:05:35;;;;;;;20.17;12.85;;;;;;;;;;5021007;28;20085;-76
2022/08/16 05:08:11;;;;;;;19.35;12.48;;;;;;;;;;5016554;28;20059;-76
2022/08/16 05:11:01;;;;;;;19.65;12.77;;;;;;;;;;5018806;28;20112;-76
2022/08/16 05:13:31;;;;;;;21.85;13.60;;;;;;;;;;5019745;28;20054;-77
2022/08/16 05:16:12;;;;;;;19.08;13.82;;;;;;;;;;5040402;28;20057;-78
2022/08/16 05:18:48;;;;;;;21.70;13.38;;;;;;;;;;5024537;28;20054;-78
2022/08/16 05:21:16;;;;;;;22.75;14.48;;;;;;;;;;5035456;28;20057;-78
2022/08/16 05:23:47;;;;;;;21.73;15.63;;;;;;;;;;5031028;28;20042;-79
2022/08/16 05:26:28;;;;;;;19.85;15.10;;;;;;;;;;5020591;28;20039;-78
2022/08/16 05:28:56;;;;;;;24.00;15.45;;;;;;;;;;5021073;28;20089;-78
2022/08/16 05:31:30;;;;;;;20.52;14.07;;;;;;;;;;5020098;28;20046;-78
2022/08/16 05:33:58;;;;;;;25.95;15.02;;;;;;;;;;5034003;28;21242;-78
2022/08/16 05:36:26;;;;;;;20.73;15.38;;;;;;;;;;5025617;28;20050;-78
2022/08/16 05:39:07;;;;;;;24.05;15.05;;;;;;;;;;5025559;28;20065;-78
2022/08/16 05:41:36;;;;;;;23.25;16.67;;;;;;;;;;5027894;28;20047;-78
2022/08/16 05:44:12;;;;;;;29.98;17.02;;;;;;;;;;5026600;28;20105;-78
2022/08/16 05:46:58;;;;;;;31.80;16.13;;;;;;;;;;5025115;28;21313;-78
2022/08/16 05:49:30;;;;;;;22.40;15.75;;;;;;;;;;5020551;28;20046;-78
2022/08/16 05:52:07;;;;;;;24.00;17.05;;;;;;;;;;5024841;28;20087;-78
2022/08/16 05:54:41;;;;;;;28.30;16.40;;;;;;;;;;5020836;28;20141;-78
2022/08/16 05:57:14;;;;;;;26.77;17.95;;;;;;;;;;5026043;28;20077;-76
2022/08/16 05:59:41;;;;;;;23.92;17.23;;;;;;;;;;5025862;28;20054;-75
2022/08/16 06:02:09;;;;;;;25.85;17.10;;;;;;;;;;5025264;28;20055;-77
2022/08/16 06:04:37;;;;;;;25.73;17.52;;;;;;;;;;5024445;28;20720;-76
2022/08/16 06:07:11;;;;;;;25.98;17.55;;;;;;;;;;5033108;28;20058;-76
2022/08/16 06:09:54;;;;;;;26.35;18.42;;;;;;;;;;5027332;28;20058;-77
2022/08/16 06:12:26;;;;;;;27.63;18.50;;;;;;;;;;5028650;28;20109;-76
2022/08/16 06:14:57;;;;;;;29.92;19.50;;;;;;;;;;5031224;28;20137;-75
2022/08/16 06:17:24;;;;;;;30.27;20.00;;;;;;;;;;5026898;28;20051;-75
2022/08/16 06:20:12;;;;;;;35.38;18.80;;;;;;;;;;5027195;28;20054;-76
2022/08/16 06:22:39;;;;;;;27.67;19.33;;;;;;;;;;5025340;28;20074;-75
2022/08/16 06:25:11;;;;;;;30.35;20.25;;;;;;;;;;5025819;28;20054;-75
2022/08/16 06:27:41;;;;;;;31.65;20.80;;;;;;;;;;5021040;28;20077;-75
2022/08/16 06:30:24;;;;;;;30.90;19.95;;;;;;;;;;5023209;28;20057;-74
2022/08/16 06:32:55;;;;;;;34.20;20.50;;;;;;;;;;5023693;28;20049;-77
2022/08/16 06:35:23;;;;;;;27.85;20.25;;;;;;;;;;5020600;28;20061;-77
2022/08/16 06:37:50;;;;;;;28.85;19.15;;;;;;;;;;5031214;28;21324;-75
2022/08/16 06:40:18;;;;;;;34.30;19.88;;;;;;;;;;5027388;28;20062;-75
2022/08/16 06:42:46;;;;;;;25.38;18.73;;;;;;;;;;5024772;28;20501;-75
2022/08/16 06:45:14;;;;;;;30.05;19.75;;;;;;;;;;5029980;28;20117;-75
2022/08/16 06:47:42;;;;;;;28.60;18.92;;;;;;;;;;5022448;28;20104;-74
2022/08/16 06:50:21;;;;;;;31.08;19.35;;;;;;;;;;5019932;28;21002;-75
2022/08/16 06:52:55;;;;;;;26.52;19.95;;;;;;;;;;5027334;28;20073;-77
2022/08/16 06:55:36;;;;;;;27.05;20.05;;;;;;;;;;5023224;28;20050;-77
2022/08/16 06:58:04;;;;;;;32.08;19.48;;;;;;;;;;5030474;28;20054;-77
2022/08/16 07:00:35;;;;;;;29.20;20.30;;;;;;;;;;5024506;28;20886;-78
2022/08/16 07:03:09;;;;;;;28.45;20.48;;;;;;;;;;5019020;28;20077;-75
2022/08/16 07:05:57;;;;;;;31.08;20.20;;;;;;;;;;5021877;28;20073;-76
2022/08/16 07:08:26;;;;;;;25.83;18.75;;;;;;;;;;5025779;28;20076;-76
2022/08/16 07:10:55;;;;;;;25.42;19.63;;;;;;;;;;5028790;28;20818;-74
2022/08/16 07:13:25;;;;;;;30.00;19.75;;;;;;;;;;5028718;28;20042;-75
2022/08/16 07:16:13;;;;;;;29.20;20.00;;;;;;;;;;5034480;28;20056;-78
2022/08/16 07:18:42;;;;;;;30.27;19.98;;;;;;;;;;5035235;28;20100;-78
2022/08/16 07:21:28;;;;;;;29.73;19.15;;;;;;;;;;5029828;28;20105;-78
2022/08/16 07:24:12;;;;;;;28.13;19.30;;;;;;;;;;5033915;28;20058;-77
2022/08/16 07:26:56;;;;;;;28.83;19.05;;;;;;;;;;5033983;28;20697;-77
2022/08/16 07:29:24;;;;;;;29.40;19.17;;;;;;;;;;5019129;28;20122;-76
2022/08/16 07:31:52;;;;;;;28.45;19.52;;;;;;;;;;5031809;28;20031;-77
2022/08/16 07:34:22;;;;;;;27.48;18.70;;;;;;;;;;5030939;28;20053;-77
2022/08/16 07:37:05;;;;;;;27.67;19.52;;;;;;;;;;5023288;28;20168;-76
2022/08/16 07:39:36;;;;;;;27.38;19.35;;;;;;;;;;5031625;28;20618;-77
2022/08/16 07:42:10;;;;;;;27.27;18.70;;;;;;;;;;5027816;28;20077;-76
2022/08/16 07:44:55;;;;;;;27.40;18.92;;;;;;;;;;5024113;28;20050;-76
2022/08/16 07:47:23;;;;;;;26.40;19.20;;;;;;;;;;5017314;28;20042;-75
2022/08/16 07:49:58;;;;;;;25.05;18.23;;;;;;;;;;5021508;28;20053;-76
2022/08/16 07:52:28;;;;;;;30.83;19.20;;;;;;;;;;5017565;28;20132;-75
2022/08/16 07:54:56;;;;;;;23.80;17.50;;;;;;;;;;5014028;28;20110;-76
2022/08/16 07:57:23;;;;;;;22.73;18.33;;;;;;;;;;5020283;28;20574;-75
2022/08/16 07:59:52;;;;;;;28.00;18.85;;;;;;;;;;5022308;28;20134;-76
2022/08/16 08:02:24;;;;;;;25.98;18.85;;;;;;;;;;5017104;28;20125;-76
2022/08/16 08:04:59;;;;;;;26.23;18.95;;;;;;;;;;5022788;28;20058;-76
2022/08/16 08:07:29;;;;;;;23.42;18.77;;;;;;;;;;5021452;28;20050;-76
2022/08/16 08:09:58;;;;;;;23.50;17.48;;;;;;;;;;5015468;28;20047;-76
2022/08/16 08:12:30;;;;;;;25.00;18.15;;;;;;;;;;5018266;28;20051;-75
2022/08/16 08:15:10;;;;;;;;;;;;;;;;;;5017052;28;20081;-76
2022/08/16 08:17:38;;;;;;;26.40;18.67;;;;;;;;;;5016434;28;42809;-76
2022/08/16 08:20:11;;;;;;;24.02;18.35;;;;;;;;;;5020576;28;20053;-76
2022/08/16 08:22:52;;;;;;;24.67;17.45;;;;;;;;;;5018899;28;20046;-76
2022/08/16 08:25:27;;;;;;;22.75;17.02;;;;;;;;;;5021843;28;20058;-76
2022/08/16 08:28:14;;;;;;;24.90;18.30;;;;;;;;;;5021334;28;20050;-76
2022/08/16 08:30:43;;;;;;;26.98;16.95;;;;;;;;;;5017907;28;20081;-75
2022/08/16 08:33:30;;;;;;;22.42;15.68;;;;;;;;;;5019188;28;20054;-75
2022/08/16 08:36:01;;;;;;;33.80;17.23;;;;;;;;;;5015377;28;20918;-76
2022/08/16 08:38:31;;;;;;;22.05;16.13;;;;;;;;;;5014243;28;20058;-75
2022/08/16 08:41:14;;;;;;;22.13;15.68;;;;;;;;;;5009899;28;20078;-76
2022/08/16 08:43:45;;;;;;;22.52;16.45;;;;;;;;;;5014113;28;20051;-76
2022/08/16 08:46:17;;;;;;;24.67;15.70;;;;;;;;;;5008709;28;20054;-75
2022/08/16 08:48:49;;;;;;;27.58;17.45;;;;;;;;;;5016593;28;20752;-76
2022/08/16 08:51:29;;;;;;;28.80;16.70;;;;;;;;;;5018090;28;20128;-76
2022/08/16 08:54:04;;;;;;;22.48;16.63;;;;;;;;;;5012048;28;20077;-75
2022/08/16 08:56:35;;;;;;;26.05;16.27;;;;;;;;;;5020743;28;20061;-75
2022/08/16 08:59:04;;;;;;;23.75;16.15;;;;;;;;;;5016499;28;20084;-75
2022/08/16 09:01:46;;;;;;;20.67;15.43;;;;;;;;;;5014465;28;20062;-76
2022/08/16 09:04:24;;;;;;;25.42;15.45;;;;;;;;;;5019127;28;20051;-75
2022/08/16 09:06:54;;;;;;;20.20;15.15;;;;;;;;;;5015036;28;20196;-75
2022/08/16 09:09:27;;;;;;;16.38;13.98;;;;;;;;;;5015874;28;20105;-75
2022/08/16 09:12:00;;;;;;;;;;;;;;;;;;5021973;28;20101;-74
2022/08/16 09:14:33;;;;;;;21.08;14.35;;;;;;;;;;5009722;28;43493;-74
2022/08/16 09:17:00;;;;;;;26.00;15.02;;;;;;;;;;5008066;28;20042;-74
2022/08/16 09:19:43;;;;;;;22.65;14.48;;;;;;;;;;5010805;28;20516;-76
2022/08/16 09:22:11;;;;;;;20.92;14.77;;;;;;;;;;5007964;28;20050;-77
2022/08/16 09:24:47;;;;;;;21.83;14.00;;;;;;;;;;5017013;28;20046;-77
2022/08/16 09:27:22;;;;;;;20.20;15.50;;;;;;;;;;5014253;28;20090;-77
2022/08/16 09:29:53;;;;;;;25.33;15.00;;;;;;;;;;5013993;28;20215;-76
2022/08/16 09:32:29;;;;;;;25.65;14.18;;;;;;;;;;5017532;28;20054;-76
2022/08/16 09:34:58;;;;;;;17.90;12.93;;;;;;;;;;5021816;28;20050;-77
2022/08/16 09:37:31;;;;;;;19.85;13.23;;;;;;;;;;5019612;28;20061;-77
2022/08/16 09:40:04;;;;;;;23.13;15.95;;;;;;;;;;5014357;28;20468;-76
2022/08/16 09:42:56;;;;;;;21.05;14.52;;;;;;;;;;5010444;28;20148;-76
2022/08/16 09:45:29;;;;;;;20.05;13.98;;;;;;;;;;5016096;28;20101;-77
2022/08/16 09:47:57;;;;;;;24.60;14.98;;;;;;;;;;5020609;28;20054;-77
2022/08/16 09:50:30;;;;;;;20.67;15.55;;;;;;;;;;5017746;28;20049;-77
2022/08/16 09:53:08;;;;;;;20.15;12.05;;;;;;;;;;5020604;28;20089;-77
2022/08/16 09:55:42;;;;;;;18.73;13.55;;;;;;;;;;5026137;28;20056;-77
2022/08/16 09:58:11;;;;;;;22.08;15.68;;;;;;;;;;5019723;28;20052;-77
2022/08/16 10:00:58;;;;;;;17.98;13.10;;;;;;;;;;5024153;28;20055;-76
2022/08/16 10:03:27;;;;;;;19.77;11.80;;;;;;;;;;5015028;28;20526;-77
2022/08/16 10:05:57;;;;;;;22.45;12.65;;;;;;;;;;5021419;28;20058;-74
2022/08/16 10:08:24;;;;;;;29.45;14.90;;;;;;;;;;5021479;28;20137;-75
2022/08/16 10:13:50;;;;;;;21.25;15.45;;;;;;;;;;5014695;28;20046;-74
2022/08/16 10:16:18;;;;;;;25.08;14.93;;;;;;;;;;5016667;28;20473;-74
2022/08/16 10:18:48;;;;;;;23.70;13.82;;;;;;;;;;5019303;28;20045;-74
2022/08/16 10:21:31;;;;;;;21.45;14.48;;;;;;;;;;5026689;28;20049;-75
2022/08/16 10:24:02;;;;;;;19.23;13.52;;;;;;;;;;5022041;28;20058;-74
2022/08/16 10:26:31;;;;;;;17.60;11.10;;;;;;;;;;5024574;28;20054;-74
2022/08/16 10:29:19;;;;;;;22.98;12.48;;;;;;;;;;5018269;28;20892;-75
2022/08/16 10:31:48;;;;;;;17.33;11.40;;;;;;;;;;5023331;28;20417;-75
2022/08/16 10:34:20;;;;;;;16.70;11.63;;;;;;;;;;5021458;28;20054;-74
2022/08/16 10:36:58;;;;;;;17.80;12.50;;;;;;;;;;5024741;28;20057;-74
2022/08/16 10:39:26;;;;;;;14.48;10.00;;;;;;;;;;5023456;28;20089;-75
2022/08/16 10:42:08;;;;;;;18.80;10.90;;;;;;;;;;5023718;28;20058;-74
2022/08/16 10:44:35;;;;;;;16.83;11.15;;;;;;;;;;5024433;28;20061;-75
2022/08/16 10:47:03;;;;;;;15.63;11.90;;;;;;;;;;5025152;28;20818;-75
2022/08/16 10:49:37;;;;;;;18.13;12.80;;;;;;;;;;5025706;28;20125;-76
2022/08/16 10:52:05;;;;;;;19.73;13.20;;;;;;;;;;5024190;28;20467;-75
2022/08/16 10:54:45;;;;;;;25.25;12.38;;;;;;;;;;5023132;28;20132;-75
2022/08/16 10:57:32;;;;;;;21.38;12.27;;;;;;;;;;5015993;28;20063;-75
2022/08/16 11:00:05;;;;;;;23.05;12.10;;;;;;;;;;5017809;28;20084;-75
2022/08/16 11:02:48;;;;;;;20.17;13.10;;;;;;;;;;5017703;28;20058;-75
2022/08/16 11:05:36;;;;;;;21.90;13.60;;;;;;;;;;5025322;28;20432;-75
2022/08/16 11:08:23;;;;;;;21.45;13.25;;;;;;;;;;5023458;28;20034;-76
2022/08/16 11:11:04;;;;;;;20.52;13.20;;;;;;;;;;5023062;28;20050;-76
2022/08/16 11:13:47;;;;;;;24.58;13.10;;;;;;;;;;5018570;28;20046;-74
2022/08/16 11:16:35;;;;;;;20.15;14.73;;;;;;;;;;5019232;28;20137;-75
2022/08/16 11:19:25;;;;;;;21.45;13.55;;;;;;;;;;5024033;28;20135;-75
2022/08/16 11:21:56;;;;;;;17.95;13.38;;;;;;;;;;5024110;28;20856;-75
2022/08/16 11:24:43;;;;;;;22.55;15.52;;;;;;;;;;5025515;28;20057;-75
2022/08/16 11:27:31;;;;;;;22.38;13.88;;;;;;;;;;5020482;28;20049;-74
2022/08/16 11:30:02;;;;;;;23.42;16.08;;;;;;;;;;5020009;28;20089;-73
2022/08/16 11:32:36;;;;;;;25.77;14.85;;;;;;;;;;5019763;28;20583;-73
2022/08/16 11:35:06;;;;;;;18.98;12.63;;;;;;;;;;5022351;28;20061;-75
2022/08/16 11:37:38;;;;;;;17.83;12.35;;;;;;;;;;5021195;28;20064;-74
2022/08/16 11:40:26;;;;;;;21.83;12.30;;;;;;;;;;5031250;28;20034;-75
2022/08/16 11:43:00;;;;;;;19.13;13.60;;;;;;;;;;5033636;28;20055;-75
2022/08/16 11:45:30;;;;;;;22.27;13.63;;;;;;;;;;5022814;28;20078;-73
2022/08/16 11:48:02;;;;;;;17.00;12.88;;;;;;;;;;5018976;28;20081;-77
2022/08/16 11:50:32;;;;;;;19.98;12.95;;;;;;;;;;5031813;28;20065;-75
2022/08/16 11:53:03;;;;;;;18.77;12.77;;;;;;;;;;5026041;28;20054;-75
2022/08/16 11:55:31;;;;;;;18.02;12.82;;;;;;;;;;5027065;28;20827;-75
2022/08/16 11:57:59;;;;;;;18.52;13.05;;;;;;;;;;5030712;28;20042;-75
2022/08/16 12:00:27;;;;;;;18.20;12.57;;;;;;;;;;5027619;28;21110;-75
2022/08/16 12:03:18;;;;;;;19.45;10.93;;;;;;;;;;5025634;28;20093;-75
2022/08/16 12:06:07;;;;;;;20.02;12.73;;;;;;;;;;5024991;28;20058;-75
2022/08/16 12:08:51;;;;;;;18.92;13.38;;;;;;;;;;5023442;28;20069;-75
2022/08/16 12:11:18;;;;;;;25.95;13.75;;;;;;;;;;5022096;28;20050;-75
2022/08/16 12:13:48;;;;;;;17.60;11.18;;;;;;;;;;5021972;28;20058;-75
2022/08/16 12:16:18;;;;;;;15.07;11.25;;;;;;;;;;5024855;28;20053;-75
2022/08/16 12:18:48;;;;;;;15.98;10.98;;;;;;;;;;5020465;28;20060;-76
2022/08/16 12:21:21;;;;;;;17.17;11.77;;;;;;;;;;5023709;28;20033;-76
2022/08/16 12:23:49;;;;;;;18.63;11.30;;;;;;;;;;5020917;28;20501;-74
2022/08/16 12:26:17;;;;;;;16.08;10.88;;;;;;;;;;5017598;28;20046;-75
2022/08/16 12:28:45;;;;;;;17.77;11.63;;;;;;;;;;5020752;28;20050;-74
2022/08/16 12:31:22;;;;;;;16.35;10.65;;;;;;;;;;5014983;28;20061;-75
2022/08/16 12:33:52;;;;;;;14.05;9.98;;;;;;;;;;5022111;28;20097;-76
2022/08/16 12:36:24;;;;;;;13.93;10.70;;;;;;;;;;5018937;28;20077;-76
2022/08/16 12:38:59;;;;;;;;;;;;;;;;;;5024347;28;20060;-76
2022/08/16 12:41:31;;;;;;;16.38;10.32;;;;;;;;;;5016155;28;44754;-76
2022/08/16 12:44:05;;;;;;;13.80;10.82;;;;;;;;;;5019895;28;20097;-76
2022/08/16 12:46:33;;;;;;;19.67;10.90;;;;;;;;;;5021968;28;21014;-76
2022/08/16 12:49:05;;;;;;;18.90;12.23;;;;;;;;;;5019596;28;20046;-75
2022/08/16 12:51:36;;;;;;;20.00;10.55;;;;;;;;;;5023296;28;20136;-75
2022/08/16 12:54:23;;;;;;;23.60;13.07;;;;;;;;;;5024554;28;20064;-76
2022/08/16 12:56:51;;;;;;;25.35;14.30;;;;;;;;;;5021385;28;20046;-75
2022/08/16 12:59:19;;;;;;;21.80;12.43;;;;;;;;;;5021678;28;20141;-76
2022/08/16 13:01:49;;;;;;;18.23;13.35;;;;;;;;;;5021560;28;21009;-76
2022/08/16 13:04:25;;;;;;;20.70;14.23;;;;;;;;;;5021529;28;20086;-75
2022/08/16 13:06:53;;;;;;;24.23;14.93;;;;;;;;;;5022570;28;20082;-76
2022/08/16 13:09:23;;;;;;;23.15;15.00;;;;;;;;;;5017709;28;20049;-75
2022/08/16 13:12:14;;;;;;;18.88;14.15;;;;;;;;;;5022012;28;20517;-76
2022/08/16 13:14:43;;;;;;;24.63;15.70;;;;;;;;;;5020863;28;20133;-76
2022/08/16 13:17:12;;;;;;;24.95;15.23;;;;;;;;;;5021262;28;20152;-76
2022/08/16 13:19:45;;;;;;;23.23;15.02;;;;;;;;;;5018858;28;20053;-76
2022/08/16 13:22:33;;;;;;;23.60;17.30;;;;;;;;;;5018892;28;20055;-76
2022/08/16 13:25:01;;;;;;;23.27;15.98;;;;;;;;;;5014225;28;20050;-75
2022/08/16 13:27:28;;;;;;;20.83;15.02;;;;;;;;;;5022473;28;20050;-76
2022/08/16 13:30:24;;;;;;;19.65;15.88;;;;;;;;;;5019383;28;20061;-77
2022/08/16 13:33:09;;;;;;;28.17;16.00;;;;;;;;;;5023377;28;20046;-76
2022/08/16 13:35:44;;;;;;;15.50;12.43;;;;;;;;;;5023126;28;20053;-76
2022/08/16 13:38:23;;;;;;;21.85;14.25;;;;;;;;;;5019984;28;20072;-76
2022/08/16 13:40:57;;;;;;;23.88;15.73;;;;;;;;;;5018007;28;20140;-77
2022/08/16 13:43:25;;;;;;;;;;;;;;;;;;5021019;28;20050;-76
2022/08/16 13:45:55;;;;;;;19.45;13.02;;;;;;;;;;5020305;28;46609;-75
2022/08/16 13:48:30;;;;;;;22.42;14.75;;;;;;;;;;5022824;28;20101;-76
2022/08/16 13:51:15;;;;;;;17.10;11.32;;;;;;;;;;5015067;28;20057;-75
2022/08/16 13:53:48;;;;;;;20.77;13.13;;;;;;;;;;5019750;28;20149;-75
2022/08/16 13:56:29;;;;;;;19.52;12.90;;;;;;;;;;5014043;28;20097;-75
2022/08/16 13:59:04;;;;;;;14.85;9.25;;;;;;;;;;5018881;28;20112;-75
2022/08/16 14:01:47;;;;;;;13.68;9.00;;;;;;;;;;5020176;28;20054;-75
2022/08/16 14:04:33;;;;;;;13.98;7.20;;;;;;;;;;5020247;28;20058;-76
2022/08/16 14:07:03;;;;;;;13.27;6.65;;;;;;;;;;5025326;28;20113;-75
2022/08/16 14:09:32;;;;;;;14.63;6.90;;;;;;;;;;5018422;28;20092;-76
2022/08/16 14:12:00;;;;;;;16.92;6.88;;;;;;;;;;5023315;28;20050;-75
2022/08/16 14:14:43;;;;;;;23.52;8.35;;;;;;;;;;5018676;28;20065;-75
2022/08/16 14:17:13;;;;;;;14.80;8.60;;;;;;;;;;5020753;28;20053;-75
2022/08/16 14:19:42;;;;;;;11.93;7.47;;;;;;;;;;5021177;28;20188;-75
2022/08/16 14:22:16;;;;;;;10.43;7.43;;;;;;;;;;5020845;28;21061;-74
2022/08/16 14:24:58;;;;;;;18.17;8.38;;;;;;;;;;5013126;28;20054;-76
2022/08/16 14:27:27;;;;;;;16.30;8.85;;;;;;;;;;5015210;28;20132;-75
2022/08/16 14:29:56;;;;;;;14.48;7.45;;;;;;;;;;5023117;28;20058;-76
2022/08/16 14:32:28;;;;;;;13.48;9.40;;;;;;;;;;5020314;28;20053;-75
2022/08/16 14:35:02;;;;;;;16.58;9.10;;;;;;;;;;5019170;28;20058;-75
2022/08/16 14:37:34;;;;;;;15.05;9.15;;;;;;;;;;5024211;28;20046;-75
2022/08/16 14:40:11;;;;;;;20.92;11.38;;;;;;;;;;5023635;28;20050;-74
2022/08/16 14:42:39;;;;;;;18.45;10.23;;;;;;;;;;5019749;28;20081;-75
2022/08/16 14:45:12;;;;;;;24.35;9.65;;;;;;;;;;5027348;28;20046;-77
2022/08/16 14:47:39;;;;;;;16.20;9.68;;;;;;;;;;5026983;28;20110;-75
2022/08/16 14:50:14;;;;;;;13.48;10.05;;;;;;;;;;5027557;28;20109;-75
2022/08/16 14:52:43;;;;;;;15.50;9.20;;;;;;;;;;5026242;28;20054;-76
2022/08/16 14:55:22;;;;;;;16.38;11.10;;;;;;;;;;5024829;28;20081;-76
2022/08/16 14:57:55;;;;;;;12.65;9.75;;;;;;;;;;5024622;28;20055;-74
2022/08/16 15:00:24;;;;;;;11.45;9.77;;;;;;;;;;5024522;28;20046;-74
2022/08/16 15:03:01;;;;;;;13.13;9.80;;;;;;;;;;5021990;28;20053;-76
2022/08/16 15:05:28;;;;;;;16.13;9.15;;;;;;;;;;5024391;28;20149;-75